sensor_id;sensor_type;location;lat;lon;timestamp;temperature;humidity
12027;DHT22;6074;52.676;7.284;2022-07-09T00:05:36;16.10;99.90
12027;DHT22;6074;52.676;7.284;2022-07-09T00:08:03;16.50;99.90
12027;DHT22;6074;52.676;7.284;2022-07-09T00:10:30;16.40;99.90
12027;DHT22;6074;52.676;7.284;2022-07-09T00:15:25;16.40;99.90
12027;DHT22;6074;52.676;7.284;2022-07-09T00:17:52;16.50;99.90
12027;DHT22;6074;52.676;7.284;2022-07-09T00:22:46;16.40;99.90
12027;DHT22;6074;52.676;7.284;2022-07-09T00:27:40;16.20;99.90
12027;DHT22;6074;52.676;7.284;2022-07-09T00:30:07;16.20;99.90
12027;DHT22;6074;52.676;7.284;2022-07-09T00:32:36;16.00;99.90
12027;DHT22;6074;52.676;7.284;2022-07-09T00:47:18;16.50;99.90
12027;DHT22;6074;52.676;7.284;2022-07-09T00:49:47;16.30;99.90
12027;DHT22;6074;52.676;7.284;2022-07-09T00:52:15;16.30;99.90
12027;DHT22;6074;52.676;7.284;2022-07-09T00:54:43;16.20;99.90
12027;DHT22;6074;52.676;7.284;2022-07-09T00:57:11;16.30;99.90
12027;DHT22;6074;52.676;7.284;2022-07-09T00:59:39;16.00;99.90
12027;DHT22;6074;52.676;7.284;2022-07-09T01:02:07;16.30;99.90
12027;DHT22;6074;52.676;7.284;2022-07-09T01:07:03;16.30;99.90
12027;DHT22;6074;52.676;7.284;2022-07-09T01:09:30;16.30;99.90
12027;DHT22;6074;52.676;7.284;2022-07-09T01:11:58;16.20;99.90
12027;DHT22;6074;52.676;7.284;2022-07-09T01:14:25;16.50;99.90
12027;DHT22;6074;52.676;7.284;2022-07-09T01:16:57;16.20;99.90
12027;DHT22;6074;52.676;7.284;2022-07-09T01:21:52;16.00;99.90
12027;DHT22;6074;52.676;7.284;2022-07-09T01:29:14;16.10;99.90
12027;DHT22;6074;52.676;7.284;2022-07-09T01:34:08;15.80;99.90
12027;DHT22;6074;52.676;7.284;2022-07-09T01:39:03;15.70;99.90
12027;DHT22;6074;52.676;7.284;2022-07-09T01:41:30;15.50;99.90
12027;DHT22;6074;52.676;7.284;2022-07-09T01:46:25;15.50;99.90
12027;DHT22;6074;52.676;7.284;2022-07-09T01:53:47;15.50;99.90
12027;DHT22;6074;52.676;7.284;2022-07-09T01:56:15;15.60;99.90
12027;DHT22;6074;52.676;7.284;2022-07-09T01:58:42;15.50;99.90
12027;DHT22;6074;52.676;7.284;2022-07-09T02:06:05;15.40;99.90
12027;DHT22;6074;52.676;7.284;2022-07-09T02:10:59;15.60;99.90
12027;DHT22;6074;52.676;7.284;2022-07-09T02:13:27;15.40;99.90
12027;DHT22;6074;52.676;7.284;2022-07-09T02:18:21;15.40;99.90
12027;DHT22;6074;52.676;7.284;2022-07-09T02:28:09;15.20;99.90
12027;DHT22;6074;52.676;7.284;2022-07-09T02:30:37;15.20;99.90
12027;DHT22;6074;52.676;7.284;2022-07-09T02:33:04;15.30;99.90
12027;DHT22;6074;52.676;7.284;2022-07-09T02:35:31;15.10;99.90
12027;DHT22;6074;52.676;7.284;2022-07-09T02:37:58;15.20;99.90
12027;DHT22;6074;52.676;7.284;2022-07-09T02:47:47;15.20;99.90
12027;DHT22;6074;52.676;7.284;2022-07-09T02:50:14;15.40;99.90
12027;DHT22;6074;52.676;7.284;2022-07-09T02:55:08;15.50;99.90
12027;DHT22;6074;52.676;7.284;2022-07-09T02:57:35;15.10;99.90
12027;DHT22;6074;52.676;7.284;2022-07-09T03:00:03;15.50;99.90
12027;DHT22;6074;52.676;7.284;2022-07-09T03:04:58;15.70;99.90
12027;DHT22;6074;52.676;7.284;2022-07-09T03:07:25;15.60;99.90
12027;DHT22;6074;52.676;7.284;2022-07-09T03:17:13;15.60;99.90
12027;DHT22;6074;52.676;7.284;2022-07-09T03:22:08;15.80;99.90
12027;DHT22;6074;52.676;7.284;2022-07-09T03:24:35;15.60;99.90
12027;DHT22;6074;52.676;7.284;2022-07-09T03:27:02;16.20;99.90
12027;DHT22;6074;52.676;7.284;2022-07-09T03:29:29;15.60;99.90
12027;DHT22;6074;52.676;7.284;2022-07-09T03:31:56;15.80;99.90
12027;DHT22;6074;52.676;7.284;2022-07-09T03:36:50;15.60;99.90
12027;DHT22;6074;52.676;7.284;2022-07-09T03:39:18;15.40;99.90
12027;DHT22;6074;52.676;7.284;2022-07-09T03:44:12;15.70;99.90
12027;DHT22;6074;52.676;7.284;2022-07-09T03:56:28;15.80;99.90
12027;DHT22;6074;52.676;7.284;2022-07-09T04:13:39;15.90;99.90
12027;DHT22;6074;52.676;7.284;2022-07-09T04:16:06;15.90;99.90
12027;DHT22;6074;52.676;7.284;2022-07-09T04:18:34;16.00;99.90
12027;DHT22;6074;52.676;7.284;2022-07-09T04:30:50;15.90;99.90
12027;DHT22;6074;52.676;7.284;2022-07-09T04:35:44;16.20;99.90
12027;DHT22;6074;52.676;7.284;2022-07-09T04:48:01;16.00;99.90
12027;DHT22;6074;52.676;7.284;2022-07-09T04:55:23;16.10;99.90
12027;DHT22;6074;52.676;7.284;2022-07-09T05:02:44;16.10;99.90
12027;DHT22;6074;52.676;7.284;2022-07-09T05:05:13;16.10;99.90
12027;DHT22;6074;52.676;7.284;2022-07-09T05:10:08;16.20;99.90
12027;DHT22;6074;52.676;7.284;2022-07-09T05:17:33;16.20;99.90
12027;DHT22;6074;52.676;7.284;2022-07-09T05:22:30;16.30;99.90
12027;DHT22;6074;52.676;7.284;2022-07-09T05:39:41;16.50;99.90
12027;DHT22;6074;52.676;7.284;2022-07-09T05:47:02;16.70;99.90
12027;DHT22;6074;52.676;7.284;2022-07-09T05:56:51;16.90;99.90
12027;DHT22;6074;52.676;7.284;2022-07-09T06:04:12;16.70;99.90
12027;DHT22;6074;52.676;7.284;2022-07-09T06:14:02;16.80;99.90
12027;DHT22;6074;52.676;7.284;2022-07-09T06:31:13;17.30;99.90
12027;DHT22;6074;52.676;7.284;2022-07-09T06:41:22;16.90;99.90
12027;DHT22;6074;52.676;7.284;2022-07-09T06:46:17;17.00;99.90
12027;DHT22;6074;52.676;7.284;2022-07-09T06:56:06;17.20;99.90
12027;DHT22;6074;52.676;7.284;2022-07-09T07:03:28;17.40;99.90
12027;DHT22;6074;52.676;7.284;2022-07-09T07:10:49;17.50;99.90
12027;DHT22;6074;52.676;7.284;2022-07-09T07:20:43;17.60;99.90
12027;DHT22;6074;52.676;7.284;2022-07-09T07:35:26;17.70;99.90
12027;DHT22;6074;52.676;7.284;2022-07-09T07:37:54;17.60;99.90
12027;DHT22;6074;52.676;7.284;2022-07-09T07:50:11;17.50;99.90
12027;DHT22;6074;52.676;7.284;2022-07-09T07:55:07;17.70;99.90
12027;DHT22;6074;52.676;7.284;2022-07-09T08:00:01;17.60;99.90
12027;DHT22;6074;52.676;7.284;2022-07-09T08:12:18;17.90;99.90
12027;DHT22;6074;52.676;7.284;2022-07-09T08:14:45;18.10;99.90
12027;DHT22;6074;52.676;7.284;2022-07-09T08:19:39;17.70;99.90
12027;DHT22;6074;52.676;7.284;2022-07-09T08:29:28;17.90;99.90
12027;DHT22;6074;52.676;7.284;2022-07-09T08:41:43;17.70;99.90
12027;DHT22;6074;52.676;7.284;2022-07-09T08:44:11;18.00;99.90
12027;DHT22;6074;52.676;7.284;2022-07-09T08:46:39;18.30;99.90
12027;DHT22;6074;52.676;7.284;2022-07-09T08:51:35;18.80;99.90
12027;DHT22;6074;52.676;7.284;2022-07-09T08:58:56;19.40;99.90
12027;DHT22;6074;52.676;7.284;2022-07-09T09:01:25;19.20;99.90
12027;DHT22;6074;52.676;7.284;2022-07-09T09:03:54;19.30;99.90
12027;DHT22;6074;52.676;7.284;2022-07-09T09:06:22;19.30;99.90
12027;DHT22;6074;52.676;7.284;2022-07-09T09:08:53;19.30;99.90
12027;DHT22;6074;52.676;7.284;2022-07-09T09:11:22;19.50;99.90
12027;DHT22;6074;52.676;7.284;2022-07-09T09:13:49;19.50;99.90
12027;DHT22;6074;52.676;7.284;2022-07-09T09:16:17;19.40;99.90
12027;DHT22;6074;52.676;7.284;2022-07-09T09:18:45;19.50;99.90
12027;DHT22;6074;52.676;7.284;2022-07-09T09:21:15;19.40;99.90
12027;DHT22;6074;52.676;7.284;2022-07-09T09:23:43;19.40;99.90
12027;DHT22;6074;52.676;7.284;2022-07-09T09:26:12;19.40;99.90
12027;DHT22;6074;52.676;7.284;2022-07-09T09:28:46;19.30;99.90
12027;DHT22;6074;52.676;7.284;2022-07-09T09:31:23;19.90;99.90
12027;DHT22;6074;52.676;7.284;2022-07-09T09:33:52;19.80;99.90
12027;DHT22;6074;52.676;7.284;2022-07-09T09:36:31;19.90;99.90
12027;DHT22;6074;52.676;7.284;2022-07-09T09:39:09;20.00;99.90
12027;DHT22;6074;52.676;7.284;2022-07-09T09:44:05;20.30;99.90
12027;DHT22;6074;52.676;7.284;2022-07-09T09:46:34;20.60;99.90
12027;DHT22;6074;52.676;7.284;2022-07-09T09:49:02;20.90;99.90
12027;DHT22;6074;52.676;7.284;2022-07-09T09:51:34;21.00;99.90
12027;DHT22;6074;52.676;7.284;2022-07-09T09:58:58;20.80;99.90
12027;DHT22;6074;52.676;7.284;2022-07-09T10:01:25;21.40;99.90
12027;DHT22;6074;52.676;7.284;2022-07-09T10:03:53;21.50;99.90
12027;DHT22;6074;52.676;7.284;2022-07-09T10:08:49;21.70;99.90
12027;DHT22;6074;52.676;7.284;2022-07-09T10:11:16;20.70;99.90
12027;DHT22;6074;52.676;7.284;2022-07-09T10:13:53;21.90;99.90
12027;DHT22;6074;52.676;7.284;2022-07-09T10:16:35;22.00;99.90
12027;DHT22;6074;52.676;7.284;2022-07-09T10:19:03;22.00;99.90
12027;DHT22;6074;52.676;7.284;2022-07-09T10:21:37;21.30;99.90
12027;DHT22;6074;52.676;7.284;2022-07-09T10:24:07;21.60;99.90
12027;DHT22;6074;52.676;7.284;2022-07-09T10:26:43;20.90;99.90
12027;DHT22;6074;52.676;7.284;2022-07-09T10:29:23;21.00;99.90
12027;DHT22;6074;52.676;7.284;2022-07-09T10:34:49;21.30;99.90
12027;DHT22;6074;52.676;7.284;2022-07-09T10:37:30;21.20;99.90
12027;DHT22;6074;52.676;7.284;2022-07-09T10:40:07;21.50;99.90
12027;DHT22;6074;52.676;7.284;2022-07-09T10:47:36;21.20;99.90
12027;DHT22;6074;52.676;7.284;2022-07-09T10:54:59;20.80;99.90
12027;DHT22;6074;52.676;7.284;2022-07-09T10:59:53;20.60;99.90
12027;DHT22;6074;52.676;7.284;2022-07-09T11:02:21;20.30;99.90
12027;DHT22;6074;52.676;7.284;2022-07-09T11:04:49;20.20;99.90
12027;DHT22;6074;52.676;7.284;2022-07-09T11:07:21;20.30;99.90
12027;DHT22;6074;52.676;7.284;2022-07-09T11:09:48;21.10;99.90
12027;DHT22;6074;52.676;7.284;2022-07-09T11:12:17;21.10;99.90
12027;DHT22;6074;52.676;7.284;2022-07-09T11:14:45;21.10;99.90
12027;DHT22;6074;52.676;7.284;2022-07-09T11:17:15;21.40;99.90
12027;DHT22;6074;52.676;7.284;2022-07-09T11:19:43;21.40;99.90
12027;DHT22;6074;52.676;7.284;2022-07-09T11:24:37;22.00;99.90
12027;DHT22;6074;52.676;7.284;2022-07-09T11:27:05;22.40;99.90
12027;DHT22;6074;52.676;7.284;2022-07-09T11:29:34;22.10;99.90
12027;DHT22;6074;52.676;7.284;2022-07-09T11:32:02;21.50;99.90
12027;DHT22;6074;52.676;7.284;2022-07-09T11:34:29;21.70;99.90
12027;DHT22;6074;52.676;7.284;2022-07-09T11:36:58;21.50;99.90
12027;DHT22;6074;52.676;7.284;2022-07-09T11:39:26;19.00;99.90
12027;DHT22;6074;52.676;7.284;2022-07-09T11:41:53;21.20;99.90
12027;DHT22;6074;52.676;7.284;2022-07-09T11:44:22;21.50;99.90
12027;DHT22;6074;52.676;7.284;2022-07-09T11:47:04;21.20;99.90
12027;DHT22;6074;52.676;7.284;2022-07-09T11:49:33;21.50;99.90
12027;DHT22;6074;52.676;7.284;2022-07-09T11:56:55;21.10;99.90
12027;DHT22;6074;52.676;7.284;2022-07-09T11:59:26;21.40;99.90
12027;DHT22;6074;52.676;7.284;2022-07-09T12:04:22;21.20;99.90
12027;DHT22;6074;52.676;7.284;2022-07-09T12:06:49;21.20;99.90
12027;DHT22;6074;52.676;7.284;2022-07-09T12:09:27;24.00;99.90
12027;DHT22;6074;52.676;7.284;2022-07-09T12:14:21;21.10;99.90
12027;DHT22;6074;52.676;7.284;2022-07-09T12:16:47;21.50;99.90
12027;DHT22;6074;52.676;7.284;2022-07-09T12:21:43;21.80;99.90
12027;DHT22;6074;52.676;7.284;2022-07-09T12:24:10;21.60;99.90
12027;DHT22;6074;52.676;7.284;2022-07-09T12:26:37;21.50;99.90
12027;DHT22;6074;52.676;7.284;2022-07-09T12:36:29;21.80;99.90
12027;DHT22;6074;52.676;7.284;2022-07-09T12:38:57;21.40;99.90
12027;DHT22;6074;52.676;7.284;2022-07-09T12:43:51;21.60;99.90
12027;DHT22;6074;52.676;7.284;2022-07-09T12:48:45;20.90;99.90
12027;DHT22;6074;52.676;7.284;2022-07-09T12:56:07;21.30;99.90
12027;DHT22;6074;52.676;7.284;2022-07-09T13:10:50;21.40;99.90
12027;DHT22;6074;52.676;7.284;2022-07-09T13:13:18;20.80;99.90
12027;DHT22;6074;52.676;7.284;2022-07-09T13:15:45;20.70;99.90
12027;DHT22;6074;52.676;7.284;2022-07-09T13:25:35;20.50;99.90
12027;DHT22;6074;52.676;7.284;2022-07-09T13:30:30;20.30;99.90
12027;DHT22;6074;52.676;7.284;2022-07-09T13:32:57;20.20;99.90
12027;DHT22;6074;52.676;7.284;2022-07-09T13:37:51;19.70;99.90
12027;DHT22;6074;52.676;7.284;2022-07-09T13:47:40;20.20;99.90
12027;DHT22;6074;52.676;7.284;2022-07-09T13:50:08;19.70;99.90
12027;DHT22;6074;52.676;7.284;2022-07-09T13:57:29;19.70;99.90
12027;DHT22;6074;52.676;7.284;2022-07-09T14:04:52;19.80;99.90
12027;DHT22;6074;52.676;7.284;2022-07-09T14:22:05;19.70;99.90
12027;DHT22;6074;52.676;7.284;2022-07-09T14:29:27;19.60;99.90
12027;DHT22;6074;52.676;7.284;2022-07-09T14:34:21;19.70;99.90
12027;DHT22;6074;52.676;7.284;2022-07-09T14:36:49;19.80;99.90
12027;DHT22;6074;52.676;7.284;2022-07-09T14:39:17;19.80;99.90
12027;DHT22;6074;52.676;7.284;2022-07-09T14:46:39;19.90;99.90
12027;DHT22;6074;52.676;7.284;2022-07-09T14:56:29;19.80;99.90
12027;DHT22;6074;52.676;7.284;2022-07-09T15:06:17;19.70;99.90
12027;DHT22;6074;52.676;7.284;2022-07-09T15:13:40;19.60;99.90
12027;DHT22;6074;52.676;7.284;2022-07-09T15:25:57;19.60;99.90
12027;DHT22;6074;52.676;7.284;2022-07-09T15:30:53;19.30;99.90
12027;DHT22;6074;52.676;7.284;2022-07-09T15:48:04;18.50;99.90
12027;DHT22;6074;52.676;7.284;2022-07-09T15:50:33;18.80;99.90
12027;DHT22;6074;52.676;7.284;2022-07-09T15:53:00;19.10;99.90
12027;DHT22;6074;52.676;7.284;2022-07-09T15:55:27;18.70;99.90
12027;DHT22;6074;52.676;7.284;2022-07-09T16:05:20;18.40;99.90
12027;DHT22;6074;52.676;7.284;2022-07-09T16:20:11;18.40;99.90
12027;DHT22;6074;52.676;7.284;2022-07-09T16:22:39;18.30;99.90
12027;DHT22;6074;52.676;7.284;2022-07-09T16:25:08;18.30;99.90
12027;DHT22;6074;52.676;7.284;2022-07-09T16:27:35;18.30;99.90
12027;DHT22;6074;52.676;7.284;2022-07-09T16:39:53;18.10;99.90
12027;DHT22;6074;52.676;7.284;2022-07-09T16:52:09;17.90;99.90
12027;DHT22;6074;52.676;7.284;2022-07-09T16:54:36;18.00;99.90
12027;DHT22;6074;52.676;7.284;2022-07-09T16:57:04;17.90;99.90
12027;DHT22;6074;52.676;7.284;2022-07-09T17:14:15;18.00;99.90
12027;DHT22;6074;52.676;7.284;2022-07-09T17:24:03;17.60;99.90
12027;DHT22;6074;52.676;7.284;2022-07-09T17:28:57;17.50;99.90
12027;DHT22;6074;52.676;7.284;2022-07-09T17:31:25;17.70;99.90
12027;DHT22;6074;52.676;7.284;2022-07-09T17:48:38;17.30;99.90
12027;DHT22;6074;52.676;7.284;2022-07-09T18:03:22;17.00;99.90
12027;DHT22;6074;52.676;7.284;2022-07-09T18:05:50;17.10;99.90
12027;DHT22;6074;52.676;7.284;2022-07-09T18:08:17;17.30;99.90
12027;DHT22;6074;52.676;7.284;2022-07-09T18:18:05;16.70;99.90
12027;DHT22;6074;52.676;7.284;2022-07-09T18:23:01;16.80;99.90
12027;DHT22;6074;52.676;7.284;2022-07-09T18:25:28;16.60;99.90
12027;DHT22;6074;52.676;7.284;2022-07-09T18:40:11;16.50;99.90
12027;DHT22;6074;52.676;7.284;2022-07-09T18:45:07;16.60;99.90
12027;DHT22;6074;52.676;7.284;2022-07-09T18:50:02;16.40;99.90
12027;DHT22;6074;52.676;7.284;2022-07-09T18:52:30;16.60;99.90
12027;DHT22;6074;52.676;7.284;2022-07-09T18:57:26;16.50;99.90
12027;DHT22;6074;52.676;7.284;2022-07-09T19:02:21;16.40;99.90
12027;DHT22;6074;52.676;7.284;2022-07-09T19:14:38;16.30;99.90
12027;DHT22;6074;52.676;7.284;2022-07-09T19:24:26;16.20;99.90
12027;DHT22;6074;52.676;7.284;2022-07-09T19:31:49;16.10;99.90
12027;DHT22;6074;52.676;7.284;2022-07-09T19:46:52;14.10;99.90
12027;DHT22;6074;52.676;7.284;2022-07-09T20:04:03;15.70;99.90
12027;DHT22;6074;52.676;7.284;2022-07-09T20:21:15;15.60;99.90
12027;DHT22;6074;52.676;7.284;2022-07-09T20:26:09;15.60;99.90
12027;DHT22;6074;52.676;7.284;2022-07-09T20:31:03;15.50;99.90
12027;DHT22;6074;52.676;7.284;2022-07-09T20:38:25;15.40;99.90
12027;DHT22;6074;52.676;7.284;2022-07-09T20:55:37;15.30;99.90
12027;DHT22;6074;52.676;7.284;2022-07-09T21:12:48;14.90;99.90
12027;DHT22;6074;52.676;7.284;2022-07-09T21:20:27;15.20;99.90
12027;DHT22;6074;52.676;7.284;2022-07-09T21:27:51;15.10;99.90
12027;DHT22;6074;52.676;7.284;2022-07-09T21:30:18;14.20;99.90
12027;DHT22;6074;52.676;7.284;2022-07-09T21:40:07;15.00;99.90
12027;DHT22;6074;52.676;7.284;2022-07-09T21:45:03;15.00;99.90
12027;DHT22;6074;52.676;7.284;2022-07-09T22:02:14;14.80;99.90
12027;DHT22;6074;52.676;7.284;2022-07-09T22:12:02;14.50;99.90
12027;DHT22;6074;52.676;7.284;2022-07-09T22:16:56;14.60;99.90
12027;DHT22;6074;52.676;7.284;2022-07-09T22:19:25;14.40;99.90
12027;DHT22;6074;52.676;7.284;2022-07-09T22:36:36;14.10;99.90
12027;DHT22;6074;52.676;7.284;2022-07-09T22:39:03;14.00;99.90
12027;DHT22;6074;52.676;7.284;2022-07-09T22:41:30;13.80;99.90
12027;DHT22;6074;52.676;7.284;2022-07-09T22:53:51;13.80;99.90
12027;DHT22;6074;52.676;7.284;2022-07-09T22:56:19;13.80;99.90
12027;DHT22;6074;52.676;7.284;2022-07-09T23:01:13;13.80;99.90
12027;DHT22;6074;52.676;7.284;2022-07-09T23:06:07;13.80;99.90
12027;DHT22;6074;52.676;7.284;2022-07-09T23:08:34;13.90;99.90
12027;DHT22;6074;52.676;7.284;2022-07-09T23:11:20;13.80;99.90
12027;DHT22;6074;52.676;7.284;2022-07-09T23:13:47;13.90;99.90
12027;DHT22;6074;52.676;7.284;2022-07-09T23:18:41;13.90;99.90
12027;DHT22;6074;52.676;7.284;2022-07-09T23:28:31;13.90;99.90
12027;DHT22;6074;52.676;7.284;2022-07-09T23:33:25;13.90;99.90
12027;DHT22;6074;52.676;7.284;2022-07-09T23:35:52;13.80;99.90
12027;DHT22;6074;52.676;7.284;2022-07-09T23:40:46;13.80;99.90
12027;DHT22;6074;52.676;7.284;2022-07-09T23:45:41;13.70;99.90
12027;DHT22;6074;52.676;7.284;2022-07-09T23:55:29;13.60;99.90
